createdAt,value
2022-09-15T00:00:01.287Z,56.2
2022-09-15T00:05:01.397Z,55.7
2022-09-15T00:10:01.205Z,56.3
2022-09-15T00:15:01.331Z,55.3
2022-09-15T00:20:01.203Z,55.7
2022-09-15T00:25:06.265Z,56.8
2022-09-15T00:30:01.199Z,57.4
2022-09-15T00:35:01.263Z,58.2
2022-09-15T00:40:01.405Z,59.8
2022-09-15T00:45:02.407Z,60.7
2022-09-15T00:50:01.163Z,60.1
2022-09-15T00:55:01.263Z,59.6
2022-09-15T01:00:01.281Z,58.6
2022-09-15T01:05:01.700Z,57.9
2022-09-15T01:10:01.178Z,57.5
2022-09-15T01:15:01.242Z,58.3
2022-09-15T01:20:01.274Z,59.0
2022-09-15T01:40:01.040Z,60.2
2022-09-15T01:45:01.008Z,61.3
2022-09-15T01:50:00.817Z,60.3
2022-09-15T01:55:01.907Z,60.0
2022-09-15T02:10:01.416Z,59.8
2022-09-15T02:30:01.762Z,68.4
2022-09-15T02:35:01.886Z,67.9
2022-09-15T02:40:01.702Z,65.6
2022-09-15T02:45:01.726Z,64.5
2022-09-15T02:50:01.683Z,63.5
2022-09-15T02:55:01.730Z,62.5
2022-09-15T03:00:01.662Z,64.6
2022-09-15T03:05:01.795Z,64.8
2022-09-15T03:10:01.843Z,65.9
2022-09-15T03:15:01.731Z,67.6
2022-09-15T03:20:01.705Z,67.0
2022-09-15T03:25:02.155Z,63.2
2022-09-15T03:30:01.667Z,62.8
2022-09-15T03:35:01.728Z,62.2
2022-09-15T03:40:02.151Z,60.6
2022-09-15T03:45:02.085Z,60.9
2022-09-15T03:50:01.685Z,61.6
2022-09-15T04:10:01.782Z,72.2
2022-09-15T04:15:08.591Z,70.8
2022-09-15T04:20:01.561Z,70.7
2022-09-15T04:25:01.687Z,67.0
2022-09-15T04:30:01.696Z,65.7
2022-09-15T04:35:01.627Z,63.8
2022-09-15T05:00:01.018Z,67.4
2022-09-15T05:05:01.046Z,66.4
2022-09-15T05:10:00.914Z,65.7
2022-09-15T05:15:00.991Z,64.2
2022-09-15T05:20:01.371Z,63.8
2022-09-15T05:25:00.976Z,63.0
2022-09-15T05:30:23.809Z,62.7
2022-09-15T05:35:01.034Z,63.2
2022-09-15T05:40:02.422Z,66.6
2022-09-15T05:45:01.057Z,67.2
2022-09-15T05:50:02.007Z,67.9
2022-09-15T05:55:00.977Z,68.0
2022-09-15T06:00:00.947Z,68.0
2022-09-15T06:05:00.973Z,65.9
2022-09-15T06:10:01.912Z,65.3
2022-09-15T06:15:01.034Z,65.7
2022-09-15T06:20:00.936Z,64.3
2022-09-15T06:25:01.035Z,62.2
2022-09-15T06:30:00.911Z,61.1
2022-09-15T06:35:00.971Z,60.6
2022-09-15T06:40:00.960Z,58.2
2022-09-15T06:45:00.964Z,58.3
2022-09-15T06:50:01.190Z,59.3
2022-09-15T06:55:01.032Z,59.7
2022-09-15T07:00:00.968Z,60.2
2022-09-15T07:05:00.969Z,60.4
2022-09-15T07:10:01.201Z,59.8
2022-09-15T07:15:01.099Z,59.1
2022-09-15T07:20:00.933Z,59.2
2022-09-15T07:25:00.967Z,58.5
2022-09-15T07:30:00.906Z,59.0
2022-09-15T07:35:01.037Z,61.9
2022-09-15T07:40:01.304Z,62.4
2022-09-15T07:45:00.959Z,62.5
2022-09-15T07:50:01.063Z,62.1
2022-09-15T07:55:00.965Z,62.7
2022-09-15T08:00:00.952Z,61.0
2022-09-15T08:10:01.079Z,60.6
2022-09-15T08:15:00.992Z,61.6
2022-09-15T08:20:00.973Z,62.0
2022-09-15T08:30:01.029Z,62.5
2022-09-15T08:35:01.089Z,63.1
2022-09-15T08:40:01.121Z,62.5
2022-09-15T08:45:01.034Z,61.6
2022-09-15T08:50:00.938Z,60.7
2022-09-15T08:55:01.102Z,62.2
2022-09-15T09:00:01.000Z,61.1
2022-09-15T09:05:01.053Z,60.9
2022-09-15T09:20:01.793Z,57.8
2022-09-15T09:25:08.514Z,57.4
2022-09-15T09:50:01.125Z,56.8
2022-09-15T09:55:01.134Z,55.9
2022-09-15T10:10:01.444Z,62.0
2022-09-15T10:15:01.746Z,64.3
2022-09-15T10:20:01.331Z,62.8
2022-09-15T10:25:01.468Z,61.2
2022-09-15T10:40:01.024Z,48.8
2022-09-15T10:45:00.973Z,48.1
2022-09-15T10:50:00.752Z,45.7
2022-09-15T11:00:00.834Z,49.7
2022-09-15T11:05:00.825Z,51.0
2022-09-15T11:10:00.746Z,51.8
2022-09-15T11:15:00.818Z,55.4
2022-09-15T11:20:00.986Z,58.2
2022-09-15T11:25:00.888Z,56.8
2022-09-15T11:30:01.043Z,57.5
2022-09-15T11:35:00.812Z,56.5
2022-09-15T11:50:01.605Z,59.2
2022-09-15T11:55:01.640Z,60.0
2022-09-15T12:10:01.040Z,65.8
2022-09-15T12:15:01.169Z,63.7
2022-09-15T12:20:00.882Z,61.3
2022-09-15T12:40:02.051Z,45.4
2022-09-15T12:45:01.369Z,46.8
2022-09-15T13:00:01.791Z,58.6
2022-09-15T13:20:01.029Z,67.0
2022-09-15T13:25:01.976Z,67.2
2022-09-15T13:30:01.091Z,65.7
2022-09-15T13:50:01.572Z,56.2
2022-09-15T13:55:01.566Z,54.2
2022-09-15T14:10:00.853Z,57.0
2022-09-15T14:15:00.784Z,58.3
2022-09-15T14:20:00.758Z,58.9
2022-09-15T14:40:01.522Z,50.8
2022-09-15T15:10:01.766Z,56.8
2022-09-15T15:15:01.700Z,60.1
2022-09-15T15:20:01.559Z,60.9
2022-09-15T15:25:01.630Z,61.6
2022-09-15T15:40:01.087Z,63.0
2022-09-15T15:45:02.093Z,62.2
2022-09-15T16:00:02.458Z,68.4
2022-09-15T16:05:01.325Z,67.5
2022-09-15T16:10:01.251Z,64.2
2022-09-15T16:15:01.372Z,63.7
2022-09-15T16:20:01.267Z,65.5
2022-09-15T16:25:01.370Z,65.3
2022-09-15T16:30:01.237Z,64.9
2022-09-15T16:35:01.321Z,66.5
2022-09-15T16:40:01.345Z,67.0
2022-09-15T16:45:02.345Z,64.8
2022-09-15T16:50:01.250Z,64.3
2022-09-15T16:55:01.373Z,63.1
2022-09-15T17:00:01.279Z,63.1
2022-09-15T17:05:01.315Z,62.8
2022-09-15T17:10:01.242Z,63.2
2022-09-15T17:15:01.310Z,63.4
2022-09-15T17:20:01.334Z,65.0
2022-09-15T17:25:01.371Z,64.8
2022-09-15T17:30:01.248Z,66.1
2022-09-15T17:35:01.359Z,67.4
2022-09-15T17:40:01.641Z,68.7
2022-09-15T17:45:01.298Z,70.0
2022-09-15T17:50:02.258Z,72.2
2022-09-15T17:55:01.363Z,71.4
2022-09-15T18:00:01.247Z,71.8
2022-09-15T18:05:01.928Z,71.3
2022-09-15T18:10:01.217Z,70.7
2022-09-15T18:15:01.429Z,70.8
2022-09-15T18:20:01.237Z,71.7
2022-09-15T18:25:01.329Z,71.2
2022-09-15T18:30:01.186Z,71.4
2022-09-15T18:35:01.257Z,71.7
2022-09-15T18:40:01.415Z,71.1
2022-09-15T18:45:01.262Z,71.5
2022-09-15T18:50:01.184Z,71.8
2022-09-15T18:55:01.853Z,71.3
2022-09-15T19:00:01.207Z,70.6
2022-09-15T19:05:02.337Z,69.3
2022-09-15T19:10:01.193Z,68.0
2022-09-15T19:15:02.273Z,67.0
2022-09-15T19:20:01.202Z,66.6
2022-09-15T19:25:01.257Z,66.2
2022-09-15T19:35:01.216Z,66.7
2022-09-15T19:40:01.445Z,67.8
2022-09-15T19:45:01.291Z,67.4
2022-09-15T19:50:01.198Z,67.6
2022-09-15T19:55:01.227Z,67.8
2022-09-15T20:00:01.210Z,67.1
2022-09-15T20:05:01.222Z,66.1
2022-09-15T20:10:01.162Z,66.8
2022-09-15T20:15:01.350Z,66.6
2022-09-15T20:25:01.195Z,67.0
2022-09-15T20:30:01.100Z,67.9
2022-09-15T20:35:01.227Z,68.5
2022-09-15T20:40:06.628Z,68.8
2022-09-15T20:45:01.243Z,68.6
2022-09-15T20:50:01.092Z,67.5
2022-09-15T20:55:01.155Z,68.3
2022-09-15T21:00:01.132Z,67.2
2022-09-15T21:05:01.186Z,66.5
2022-09-15T21:10:01.121Z,67.8
2022-09-15T21:15:01.255Z,69.3
2022-09-15T21:20:01.149Z,68.4
2022-09-15T21:25:01.194Z,69.3
2022-09-15T21:30:01.135Z,70.0
2022-09-15T21:35:01.285Z,69.9
2022-09-15T21:45:02.289Z,69.6
2022-09-15T22:30:01.822Z,68.0
2022-09-15T22:35:02.135Z,69.0
2022-09-15T22:40:01.737Z,70.2
2022-09-15T22:45:01.691Z,69.5
2022-09-15T22:50:01.651Z,69.7
2022-09-15T22:55:01.755Z,71.2
2022-09-15T23:10:01.282Z,63.6
2022-09-15T23:15:01.164Z,65.6
2022-09-15T23:20:01.098Z,66.4
2022-09-15T23:25:02.597Z,67.2
2022-09-15T23:30:01.132Z,67.0
2022-09-15T23:35:01.229Z,68.5
2022-09-15T23:40:01.141Z,69.6
2022-09-15T23:45:01.229Z,71.5
2022-09-15T23:50:01.137Z,72.5
2022-09-15T23:55:02.188Z,72.1
